createdAt,value
2019-03-15T00:02:20.202Z,69.30
2019-03-15T00:04:50.558Z,69.47
2019-03-15T00:07:20.621Z,69.71
2019-03-15T00:09:50.627Z,69.71
2019-03-15T00:12:20.126Z,69.91
2019-03-15T00:14:50.219Z,69.94
2019-03-15T00:17:19.849Z,69.76
2019-03-15T00:19:49.527Z,68.73
2019-03-15T00:22:19.328Z,68.50
2019-03-15T00:24:49.061Z,68.50
2019-03-15T00:27:33.642Z,68.08
2019-03-15T00:30:02.816Z,67.92
2019-03-15T00:32:32.434Z,68.48
2019-03-15T00:35:04.319Z,71.02
2019-03-15T00:37:34.050Z,69.78
2019-03-15T00:40:04.507Z,68.79
2019-03-15T00:42:34.542Z,68.11
2019-03-15T00:45:08.060Z,68.11
2019-03-15T00:47:37.681Z,71.03
2019-03-15T00:50:09.873Z,70.10
2019-03-15T00:52:39.325Z,70.33
2019-03-15T00:55:09.132Z,70.05
2019-03-15T00:57:38.605Z,70.39
2019-03-15T01:00:11.435Z,69.40
2019-03-15T01:02:44.113Z,69.88
2019-03-15T01:05:13.390Z,69.88
2019-03-15T01:07:43.148Z,67.59
2019-03-15T01:10:13.320Z,69.26
2019-03-15T01:12:43.040Z,69.62
2019-03-15T01:15:13.561Z,69.44
2019-03-15T01:17:43.253Z,69.18
2019-03-15T01:20:12.999Z,69.18
2019-03-15T01:22:42.764Z,68.81
2019-03-15T01:25:12.538Z,70.10
2019-03-15T01:27:42.073Z,68.40
2019-03-15T01:30:12.346Z,68.40
2019-03-15T01:32:42.498Z,67.88
2019-03-15T01:35:12.123Z,67.88
2019-03-15T01:37:41.639Z,68.07
2019-03-15T01:40:10.914Z,68.89
2019-03-15T01:42:40.686Z,69.67
2019-03-15T01:45:09.485Z,69.27
2019-03-15T01:47:39.100Z,70.48
2019-03-15T01:50:09.068Z,70.48
2019-03-15T01:52:38.810Z,69.60
2019-03-15T01:55:08.574Z,70.14
2019-03-15T01:57:38.058Z,69.66
2019-03-15T02:00:10.670Z,69.66
2019-03-15T02:02:39.536Z,68.90
2019-03-15T02:05:09.083Z,71.43
2019-03-15T02:07:38.743Z,71.43
2019-03-15T02:10:09.185Z,69.60
2019-03-15T02:12:39.093Z,69.62
2019-03-15T02:15:09.558Z,69.57
2019-03-15T02:17:38.823Z,70.01
2019-03-15T02:20:08.521Z,69.49
2019-03-15T02:22:37.719Z,69.30
2019-03-15T02:25:07.333Z,70.22
2019-03-15T02:27:37.021Z,70.24
2019-03-15T02:30:07.534Z,70.35
2019-03-15T02:32:37.109Z,67.16
2019-03-15T02:35:07.169Z,67.16
2019-03-15T02:37:36.704Z,66.34
2019-03-15T02:40:07.074Z,67.07
2019-03-15T02:42:36.734Z,67.87
2019-03-15T02:45:07.030Z,67.85
2019-03-15T02:47:37.015Z,68.16
2019-03-15T02:50:06.726Z,67.90
2019-03-15T02:52:36.496Z,68.26
2019-03-15T02:55:06.319Z,68.08
2019-03-15T02:57:36.012Z,67.93
2019-03-15T03:00:06.599Z,67.48
2019-03-15T03:02:36.465Z,66.01
2019-03-15T03:05:06.262Z,66.20
2019-03-15T03:07:35.879Z,65.87
2019-03-15T03:10:06.061Z,66.04
2019-03-15T03:12:40.478Z,64.71
2019-03-15T03:15:10.022Z,65.63
2019-03-15T03:17:47.547Z,66.49
2019-03-15T03:20:17.050Z,66.35
2019-03-15T03:22:46.894Z,66.35
2019-03-15T03:25:18.675Z,66.27
2019-03-15T03:27:47.657Z,66.56
2019-03-15T03:30:17.560Z,67.84
2019-03-15T03:32:46.631Z,69.00
2019-03-15T03:35:15.894Z,69.04
2019-03-15T03:37:45.579Z,69.54
2019-03-15T03:40:19.758Z,70.97
2019-03-15T03:42:46.794Z,72.17
2019-03-15T03:45:16.892Z,73.23
2019-03-15T03:47:46.655Z,73.38
2019-03-15T03:50:15.724Z,73.98
2019-03-15T03:52:48.345Z,73.35
2019-03-15T03:55:17.866Z,72.40
2019-03-15T03:57:47.823Z,73.62
2019-03-15T04:00:17.816Z,74.24
2019-03-15T04:02:47.825Z,74.46
2019-03-15T04:05:17.577Z,74.46
2019-03-15T04:07:46.676Z,75.87
2019-03-15T04:10:16.480Z,74.81
2019-03-15T04:12:46.344Z,74.84
2019-03-15T04:15:16.512Z,75.13
2019-03-15T04:17:46.476Z,76.00
2019-03-15T04:20:16.656Z,75.38
2019-03-15T04:22:46.419Z,75.38
2019-03-15T04:25:16.147Z,75.03
2019-03-15T04:27:45.834Z,75.65
2019-03-15T04:30:15.585Z,75.96
2019-03-15T04:32:46.611Z,77.99
2019-03-15T04:35:16.479Z,77.82
2019-03-15T04:37:46.062Z,77.09
2019-03-15T04:40:15.651Z,75.74
2019-03-15T04:42:44.484Z,75.06
2019-03-15T04:45:14.452Z,74.78
2019-03-15T04:47:44.498Z,74.78
2019-03-15T04:50:14.727Z,74.55
2019-03-15T04:52:43.621Z,74.55
2019-03-15T04:55:13.332Z,73.97
2019-03-15T04:57:43.154Z,73.97
2019-03-15T05:00:13.466Z,74.15
2019-03-15T05:02:43.073Z,74.54
2019-03-15T05:05:14.701Z,74.54
2019-03-15T05:07:44.315Z,73.95
2019-03-15T05:10:14.045Z,73.14
2019-03-15T05:12:44.139Z,73.72
2019-03-15T05:15:13.578Z,74.44
2019-03-15T05:17:42.291Z,75.35
2019-03-15T05:20:11.841Z,75.91
2019-03-15T05:22:41.322Z,76.48
2019-03-15T05:25:11.115Z,75.28
2019-03-15T05:27:43.345Z,74.18
2019-03-15T05:30:14.120Z,74.17
2019-03-15T05:32:43.991Z,74.50
2019-03-15T05:35:13.701Z,76.18
2019-03-15T05:37:43.308Z,75.12
2019-03-15T05:40:13.128Z,74.47
2019-03-15T05:42:43.053Z,74.37
2019-03-15T05:45:13.680Z,73.95
2019-03-15T05:47:43.155Z,73.31
2019-03-15T05:50:13.159Z,74.26
2019-03-15T05:52:42.818Z,75.16
2019-03-15T05:55:12.838Z,76.11
2019-03-15T05:57:42.328Z,76.34
2019-03-15T06:00:12.821Z,75.23
2019-03-15T06:02:42.426Z,75.79
2019-03-15T06:05:13.416Z,76.48
2019-03-15T06:07:43.062Z,76.35
2019-03-15T06:10:12.819Z,75.47
2019-03-15T06:12:43.452Z,75.71
2019-03-15T06:15:13.166Z,76.39
2019-03-15T06:17:42.834Z,76.39
2019-03-15T06:20:12.460Z,73.82
2019-03-15T06:22:42.505Z,75.87
2019-03-15T06:25:12.401Z,75.71
2019-03-15T06:27:43.017Z,75.92
2019-03-15T06:30:13.573Z,75.36
2019-03-15T06:32:42.831Z,75.02
2019-03-15T06:35:12.985Z,75.15
2019-03-15T06:37:42.858Z,75.00
2019-03-15T06:40:13.789Z,74.85
2019-03-15T06:42:45.332Z,75.05
2019-03-15T06:45:21.655Z,74.82
2019-03-15T06:47:53.100Z,74.36
2019-03-15T06:50:23.494Z,74.74
2019-03-15T06:52:52.840Z,73.97
2019-03-15T06:55:23.319Z,75.04
2019-03-15T06:57:53.109Z,75.24
2019-03-15T07:00:24.583Z,74.07
2019-03-15T07:02:56.156Z,73.94
2019-03-15T07:05:26.548Z,72.63
2019-03-15T07:07:56.725Z,73.45
2019-03-15T07:10:27.251Z,73.45
2019-03-15T07:12:57.512Z,74.27
2019-03-15T07:15:27.656Z,74.15
2019-03-15T07:17:59.823Z,75.43
2019-03-15T07:20:29.306Z,74.81
2019-03-15T07:22:59.134Z,73.72
2019-03-15T07:25:29.475Z,72.60
2019-03-15T07:27:59.642Z,74.82
2019-03-15T07:30:28.793Z,75.35
2019-03-15T07:32:58.784Z,74.58
2019-03-15T07:35:28.834Z,75.33
2019-03-15T07:37:59.630Z,76.74
2019-03-15T07:40:29.125Z,76.80
2019-03-15T07:43:03.401Z,75.09
2019-03-15T07:45:31.321Z,77.99
2019-03-15T07:48:00.910Z,77.99
2019-03-15T07:50:48.229Z,77.08
2019-03-15T07:53:18.489Z,74.20
2019-03-15T07:55:49.227Z,75.24
2019-03-15T07:58:19.947Z,75.35
2019-03-15T08:00:50.528Z,75.35
2019-03-15T08:03:23.807Z,75.87
2019-03-15T08:05:58.534Z,75.89
2019-03-15T08:08:32.638Z,75.28
2019-03-15T08:11:09.937Z,75.28
2019-03-15T08:13:43.330Z,76.36
2019-03-15T08:16:13.147Z,77.24
2019-03-15T08:18:44.494Z,76.77
2019-03-15T08:21:22.804Z,76.77
2019-03-15T08:23:56.504Z,75.96
2019-03-15T08:26:30.164Z,74.94
2019-03-15T08:29:01.326Z,75.77
2019-03-15T08:31:33.758Z,75.51
2019-03-15T08:34:04.334Z,75.51
2019-03-15T08:36:34.942Z,73.29
2019-03-15T08:39:12.164Z,75.83
2019-03-15T08:41:43.913Z,75.69
2019-03-15T08:44:13.877Z,75.69
2019-03-15T08:46:44.176Z,76.91
2019-03-15T08:49:14.903Z,75.81
2019-03-15T08:51:45.365Z,75.66
2019-03-15T08:54:15.902Z,76.31
2019-03-15T08:56:45.703Z,75.66
2019-03-15T08:59:16.334Z,73.50
2019-03-15T09:01:46.701Z,75.89
2019-03-15T09:04:16.679Z,75.89
2019-03-15T09:06:46.554Z,71.41
2019-03-15T09:09:17.544Z,72.49
2019-03-15T09:11:47.614Z,74.33
2019-03-15T09:14:18.940Z,73.50
2019-03-15T09:16:50.559Z,72.71
2019-03-15T09:19:21.392Z,73.24
2019-03-15T09:21:51.845Z,71.91
2019-03-15T09:24:21.905Z,71.91
2019-03-15T09:26:51.853Z,72.72
2019-03-15T09:29:21.881Z,74.04
2019-03-15T09:32:04.411Z,73.59
2019-03-15T09:34:23.688Z,75.02
2019-03-15T09:36:54.123Z,75.63
2019-03-15T09:39:24.665Z,75.34
2019-03-15T09:41:55.492Z,75.88
2019-03-15T09:44:25.317Z,75.47
2019-03-15T09:46:55.510Z,75.47
2019-03-15T09:49:25.885Z,74.51
2019-03-15T09:51:56.118Z,74.51
2019-03-15T09:54:26.470Z,73.78
2019-03-15T09:56:55.695Z,75.88
2019-03-15T09:59:26.088Z,73.88
2019-03-15T10:01:55.819Z,74.99
2019-03-15T10:04:25.542Z,74.73
2019-03-15T10:06:56.122Z,75.83
2019-03-15T10:09:26.632Z,75.83
2019-03-15T10:11:56.606Z,75.99
2019-03-15T10:14:27.650Z,74.77
2019-03-15T10:16:57.294Z,74.70
2019-03-15T10:19:29.582Z,72.87
2019-03-15T10:22:01.893Z,74.97
2019-03-15T10:24:31.693Z,73.75
2019-03-15T10:27:00.622Z,74.36
2019-03-15T10:32:16.318Z,73.85
2019-03-15T10:34:47.172Z,74.39
2019-03-15T10:37:17.241Z,75.67
2019-03-15T10:39:47.955Z,73.54
2019-03-15T10:42:18.859Z,71.76
2019-03-15T10:44:48.819Z,73.72
2019-03-15T10:47:18.550Z,73.10
2019-03-15T10:49:50.312Z,73.57
2019-03-15T10:52:21.472Z,73.57
2019-03-15T10:54:51.449Z,75.31
2019-03-15T10:57:21.709Z,75.64
2019-03-15T10:59:51.985Z,75.64
2019-03-15T11:02:24.315Z,74.13
2019-03-15T11:04:54.530Z,73.66
2019-03-15T11:07:25.315Z,72.84
2019-03-15T11:09:55.050Z,72.84
2019-03-15T11:12:25.187Z,72.07
2019-03-15T11:14:55.737Z,74.45
2019-03-15T11:17:25.969Z,74.45
2019-03-15T11:19:56.852Z,74.80
2019-03-15T11:22:26.743Z,74.98
2019-03-15T11:24:57.800Z,74.30
2019-03-15T11:27:27.982Z,74.18
2019-03-15T11:29:57.818Z,73.38
2019-03-15T11:32:28.080Z,73.15
2019-03-15T11:34:58.056Z,73.53
2019-03-15T11:37:27.847Z,73.89
2019-03-15T11:40:09.542Z,72.41
2019-03-15T11:42:45.797Z,75.00
2019-03-15T11:45:18.145Z,75.00
2019-03-15T11:48:02.510Z,75.16
2019-03-15T11:50:21.812Z,75.13
2019-03-15T11:52:57.071Z,75.47
2019-03-15T11:55:27.607Z,75.10
2019-03-15T11:58:02.510Z,75.26
2019-03-15T12:00:32.058Z,75.18
2019-03-15T12:03:04.546Z,75.18
2019-03-15T12:05:34.654Z,73.80
2019-03-15T12:08:08.215Z,73.80
2019-03-15T12:10:38.869Z,74.51
2019-03-15T12:13:18.215Z,73.30
2019-03-15T12:15:53.894Z,72.98
2019-03-15T12:18:26.650Z,72.24
2019-03-15T12:20:56.061Z,74.21
2019-03-15T12:23:26.425Z,74.21
2019-03-15T12:25:59.070Z,73.55
2019-03-15T12:28:29.207Z,73.55
2019-03-15T12:30:58.964Z,73.26
2019-03-15T12:33:31.512Z,73.37
2019-03-15T12:36:03.521Z,72.40
2019-03-15T12:38:34.757Z,72.40
2019-03-15T12:41:06.327Z,71.72
2019-03-15T12:43:36.053Z,71.20
2019-03-15T12:46:29.538Z,71.18
2019-03-15T12:49:16.798Z,70.74
2019-03-15T12:51:49.824Z,70.74
2019-03-15T12:54:20.833Z,69.80
2019-03-15T12:57:04.224Z,71.50
2019-03-15T12:59:33.837Z,69.75
2019-03-15T13:02:04.113Z,70.43
2019-03-15T13:04:34.316Z,70.43
2019-03-15T13:07:04.031Z,71.29
2019-03-15T13:09:34.705Z,70.68
2019-03-15T13:12:04.526Z,70.81
2019-03-15T13:14:35.672Z,72.50
2019-03-15T13:17:04.509Z,72.50
2019-03-15T13:19:36.139Z,72.44
2019-03-15T13:22:06.030Z,72.44
2019-03-15T13:24:35.653Z,71.26
2019-03-15T13:27:07.810Z,70.18
2019-03-15T13:29:37.846Z,70.18
2019-03-15T13:32:09.184Z,71.66
2019-03-15T13:34:39.136Z,70.47
2019-03-15T13:37:09.130Z,69.22
2019-03-15T13:39:39.023Z,68.65
2019-03-15T13:42:08.654Z,70.03
2019-03-15T13:44:37.495Z,68.99
2019-03-15T13:47:07.574Z,68.10
2019-03-15T13:49:36.984Z,68.10
2019-03-15T13:52:09.314Z,68.48
2019-03-15T13:54:39.072Z,67.87
2019-03-15T13:57:20.720Z,66.37
2019-03-15T13:59:40.939Z,67.14
2019-03-15T14:02:12.653Z,65.36
2019-03-15T14:05:08.687Z,65.16
2019-03-15T14:07:40.889Z,64.97
2019-03-15T14:10:11.251Z,65.30
2019-03-15T14:12:41.306Z,63.23
2019-03-15T14:15:11.943Z,64.22
2019-03-15T14:17:41.996Z,63.19
2019-03-15T14:20:12.583Z,65.02
2019-03-15T14:22:42.682Z,65.23
2019-03-15T14:25:13.115Z,63.29
2019-03-15T14:27:43.131Z,64.21
2019-03-15T14:30:13.611Z,64.28
2019-03-15T14:32:42.774Z,63.63
2019-03-15T14:35:12.633Z,64.14
2019-03-15T14:37:43.205Z,62.51
2019-03-15T14:40:13.483Z,64.69
2019-03-15T14:42:43.571Z,64.17
2019-03-15T14:45:14.317Z,64.17
2019-03-15T14:47:44.473Z,64.47
2019-03-15T14:50:15.274Z,65.12
2019-03-15T14:52:45.089Z,65.12
2019-03-15T14:55:16.447Z,63.35
2019-03-15T14:57:52.536Z,64.21
2019-03-15T15:00:19.382Z,64.21
2019-03-15T15:02:49.001Z,63.45
2019-03-15T15:05:19.260Z,63.12
2019-03-15T15:07:49.068Z,62.24
2019-03-15T15:10:19.447Z,61.73
2019-03-15T15:12:49.129Z,61.01
2019-03-15T15:15:19.529Z,61.12
2019-03-15T15:17:48.264Z,61.79
2019-03-15T15:20:17.911Z,61.79
2019-03-15T15:22:47.832Z,59.83
2019-03-15T15:25:53.466Z,60.67
2019-03-15T15:28:33.381Z,62.28
2019-03-15T15:31:03.833Z,61.29
2019-03-15T15:33:33.486Z,58.94
2019-03-15T15:36:04.685Z,61.90
2019-03-15T15:38:37.748Z,61.90
2019-03-15T15:41:11.107Z,60.58
2019-03-15T15:43:46.949Z,59.43
2019-03-15T15:46:17.000Z,59.65
2019-03-15T15:48:57.640Z,61.28
2019-03-15T15:51:26.808Z,60.19
2019-03-15T15:53:56.315Z,59.92
2019-03-15T15:56:25.850Z,59.57
2019-03-15T15:58:55.438Z,59.47
2019-03-15T16:01:31.558Z,58.69
2019-03-15T16:04:01.075Z,61.10
2019-03-15T16:06:30.660Z,61.10
2019-03-15T16:09:00.651Z,61.31
2019-03-15T16:11:31.379Z,61.25
2019-03-15T16:14:02.532Z,59.71
2019-03-15T16:16:32.442Z,58.54
2019-03-15T16:19:05.083Z,59.25
2019-03-15T16:21:35.320Z,59.25
2019-03-15T16:24:07.699Z,59.50
2019-03-15T16:26:40.944Z,59.03
2019-03-15T16:29:13.472Z,59.31
2019-03-15T16:31:44.549Z,59.08
2019-03-15T16:34:16.939Z,58.75
2019-03-15T16:36:47.560Z,59.46
2019-03-15T16:39:17.858Z,59.19
2019-03-15T16:41:48.524Z,59.19
2019-03-15T16:44:25.108Z,59.57
2019-03-15T16:46:56.885Z,58.36
2019-03-15T16:49:27.290Z,59.88
2019-03-15T16:51:57.621Z,59.70
2019-03-15T16:54:30.558Z,60.97
2019-03-15T16:57:01.529Z,60.96
2019-03-15T16:59:33.956Z,60.45
2019-03-15T17:02:04.785Z,60.45
2019-03-15T17:04:39.478Z,59.66
2019-03-15T17:07:11.317Z,60.49
2019-03-15T17:09:41.684Z,63.43
2019-03-15T17:12:12.324Z,61.05
2019-03-15T17:14:43.446Z,60.40
2019-03-15T17:17:15.734Z,61.09
2019-03-15T17:19:47.720Z,60.42
2019-03-15T17:22:20.119Z,60.12
2019-03-15T17:24:59.710Z,59.30
2019-03-15T17:28:15.091Z,60.93
2019-03-15T17:30:46.156Z,59.74
2019-03-15T17:33:16.938Z,60.21
2019-03-15T17:35:49.312Z,60.77
2019-03-15T17:38:19.099Z,60.51
2019-03-15T17:40:49.415Z,60.26
2019-03-15T17:43:20.139Z,60.81
2019-03-15T17:45:53.663Z,60.02
2019-03-15T17:48:23.788Z,60.02
2019-03-15T17:50:54.979Z,60.37
2019-03-15T17:53:26.141Z,60.75
2019-03-15T17:55:57.549Z,61.92
2019-03-15T17:58:29.189Z,61.76
2019-03-15T18:01:00.760Z,61.76
2019-03-15T18:03:32.866Z,61.07
2019-03-15T18:06:03.359Z,59.92
2019-03-15T18:08:34.003Z,61.62
2019-03-15T18:11:05.316Z,61.62
2019-03-15T18:13:36.545Z,62.55
2019-03-15T18:16:10.588Z,61.89
2019-03-15T18:18:44.053Z,61.89
2019-03-15T18:21:18.992Z,61.27
2019-03-15T18:23:50.317Z,61.32
2019-03-15T18:26:22.857Z,61.89
2019-03-15T18:28:56.823Z,61.91
2019-03-15T18:31:42.907Z,62.03
2019-03-15T18:34:15.613Z,61.67
2019-03-15T18:36:44.569Z,61.06
2019-03-15T18:39:13.511Z,61.91
2019-03-15T18:41:43.311Z,61.91
2019-03-15T18:44:12.973Z,61.87
2019-03-15T18:46:44.057Z,61.32
2019-03-15T18:49:13.692Z,61.00
2019-03-15T18:51:43.312Z,61.85
2019-03-15T18:54:17.823Z,61.36
2019-03-15T18:56:47.535Z,61.73
2019-03-15T18:59:18.772Z,61.93
2019-03-15T19:01:54.142Z,61.93
2019-03-15T19:04:35.320Z,61.38
2019-03-15T19:07:19.314Z,61.36
2019-03-15T19:09:55.785Z,61.08
2019-03-15T19:12:28.600Z,61.03
2019-03-15T19:15:01.467Z,60.67
2019-03-15T19:17:32.605Z,61.36
2019-03-15T19:20:02.514Z,61.98
2019-03-15T19:22:33.303Z,62.24
2019-03-15T19:25:10.879Z,62.24
2019-03-15T19:27:42.177Z,61.14
2019-03-15T19:30:14.946Z,61.04
2019-03-15T19:32:45.738Z,61.20
2019-03-15T19:35:21.646Z,62.14
2019-03-15T19:37:51.179Z,61.93
2019-03-15T19:40:23.574Z,61.93
2019-03-15T19:42:54.667Z,62.14
2019-03-15T19:45:26.746Z,61.54
2019-03-15T19:47:57.484Z,61.52
2019-03-15T19:50:35.054Z,61.06
2019-03-15T19:53:13.063Z,61.29
2019-03-15T19:55:45.332Z,61.31
2019-03-15T19:58:18.344Z,61.38
2019-03-15T20:00:52.428Z,61.38
2019-03-15T20:03:24.326Z,62.61
2019-03-15T20:05:56.834Z,63.72
2019-03-15T20:08:30.866Z,62.04
2019-03-15T20:11:14.075Z,64.09
2019-03-15T20:13:45.547Z,64.31
2019-03-15T20:16:16.687Z,65.05
2019-03-15T20:18:47.777Z,65.62
2019-03-15T20:21:19.883Z,66.37
2019-03-15T20:26:46.344Z,67.25
2019-03-15T20:29:17.636Z,66.33
2019-03-15T20:31:48.729Z,66.33
2019-03-15T20:34:19.224Z,67.32
2019-03-15T20:36:49.902Z,67.98
2019-03-15T20:39:21.650Z,68.05
2019-03-15T20:41:53.320Z,67.17
2019-03-15T20:44:45.479Z,67.94
2019-03-15T20:47:21.860Z,67.42
2019-03-15T20:49:55.175Z,67.42
2019-03-15T20:52:29.046Z,67.89
2019-03-15T20:55:02.386Z,67.68
2019-03-15T20:57:31.896Z,67.59
2019-03-15T21:00:02.143Z,67.59
2019-03-15T21:02:34.476Z,68.04
2019-03-15T21:05:08.030Z,68.93
2019-03-15T21:07:44.711Z,68.93
2019-03-15T21:10:17.055Z,68.98
2019-03-15T21:12:49.530Z,68.81
2019-03-15T21:15:18.994Z,70.63
2019-03-15T21:17:48.643Z,70.59
2019-03-15T21:20:17.506Z,69.77
2019-03-15T21:22:47.341Z,69.96
2019-03-15T21:25:17.028Z,70.93
2019-03-15T21:27:53.463Z,70.93
2019-03-15T21:30:18.463Z,70.20
2019-03-15T21:32:48.159Z,70.20
2019-03-15T21:35:17.859Z,69.12
2019-03-15T21:37:48.312Z,71.14
2019-03-15T21:40:18.155Z,70.59
2019-03-15T21:42:49.171Z,70.79
2019-03-15T21:45:19.184Z,69.59
2019-03-15T21:47:49.028Z,69.44
2019-03-15T21:50:19.166Z,70.80
2019-03-15T21:52:48.843Z,69.52
2019-03-15T21:55:18.582Z,70.19
2019-03-15T21:57:47.768Z,70.23
2019-03-15T22:00:17.803Z,69.20
2019-03-15T22:02:47.461Z,69.72
2019-03-15T22:05:19.735Z,68.77
2019-03-15T22:07:49.522Z,68.77
2019-03-15T22:10:19.051Z,69.24
2019-03-15T22:12:49.336Z,69.24
2019-03-15T22:15:19.145Z,67.91
2019-03-15T22:17:49.142Z,69.09
2019-03-15T22:20:19.003Z,68.90
2019-03-15T22:22:49.028Z,68.97
2019-03-15T22:25:19.250Z,69.33
2019-03-15T22:27:50.340Z,69.21
2019-03-15T22:30:19.667Z,68.85
2019-03-15T22:32:48.672Z,68.58
2019-03-15T22:35:17.527Z,68.14
2019-03-15T22:37:47.456Z,67.53
2019-03-15T22:40:18.582Z,69.47
2019-03-15T22:42:47.483Z,69.47
2019-03-15T22:45:17.319Z,68.82
2019-03-15T22:47:47.079Z,68.82
2019-03-15T22:50:16.609Z,69.33
2019-03-15T22:52:45.493Z,68.70
2019-03-15T22:55:15.186Z,67.93
2019-03-15T22:57:58.928Z,67.93
2019-03-15T23:00:17.914Z,68.11
2019-03-15T23:02:51.098Z,68.41
2019-03-15T23:05:21.452Z,68.38
2019-03-15T23:08:12.369Z,67.99
2019-03-15T23:10:47.280Z,68.53
2019-03-15T23:13:16.847Z,68.15
2019-03-15T23:15:46.531Z,67.69
2019-03-15T23:18:16.041Z,68.17
2019-03-15T23:20:45.556Z,68.17
2019-03-15T23:23:23.678Z,69.80
2019-03-15T23:25:48.290Z,69.80
2019-03-15T23:28:17.770Z,67.75
2019-03-15T23:30:47.698Z,68.96
2019-03-15T23:33:17.119Z,69.22
2019-03-15T23:35:53.825Z,67.43
2019-03-15T23:38:19.169Z,68.28
2019-03-15T23:40:49.035Z,69.10
2019-03-15T23:43:18.551Z,68.45
2019-03-15T23:45:48.007Z,68.79
2019-03-15T23:48:17.561Z,67.41
2019-03-15T23:50:46.493Z,67.42
2019-03-15T23:53:16.052Z,67.90
2019-03-15T23:55:45.591Z,67.64
2019-03-15T23:58:15.068Z,68.58
